Time;durP1;ratioP1;P1;durP2;ratioP2;P2;SDS_P1;SDS_P2;PMS_P1;PMS_P2;Temp;Humidity;BMP_temperature;BMP_pressure;BME280_temperature;BME280_humidity;BME280_pressure;Samples;Min_cycle;Max_cycle;Signal;HPM_P1;HPM_P2
2022/04/07 00:00:38;;;;;;;113.22;102.40;;;10.50;98.00;;;;;;5017914;28;20045;-81
2022/04/07 00:03:05;;;;;;;112.95;101.82;;;10.50;98.00;;;;;;5017622;28;20056;-81
2022/04/07 00:05:33;;;;;;;111.72;100.80;;;10.50;98.10;;;;;;5017795;28;20057;-81
2022/04/07 00:08:00;;;;;;;113.25;102.40;;;10.60;98.20;;;;;;5017123;28;20132;-81
2022/04/07 00:10:28;;;;;;;112.97;102.13;;;10.50;98.30;;;;;;5017746;28;20054;-81
2022/04/07 00:12:55;;;;;;;114.07;102.93;;;10.50;98.50;;;;;;5017581;28;20053;-81
2022/04/07 00:15:23;;;;;;;;;;;10.50;98.60;;;;;;5018068;28;20050;-81
2022/04/07 00:17:49;;;;;;;112.55;101.57;;;10.50;99.00;;;;;;5035436;28;19925;-81
2022/04/07 00:20:17;;;;;;;113.28;102.22;;;10.40;98.80;;;;;;5035046;28;20136;-81
2022/04/07 00:22:44;;;;;;;114.05;102.80;;;10.40;98.90;;;;;;5017678;28;20061;-80
2022/04/07 00:25:11;;;;;;;113.88;103.00;;;10.30;99.00;;;;;;5017150;28;20120;-81
2022/04/07 00:27:39;;;;;;;113.43;102.40;;;10.40;99.10;;;;;;5017228;28;20141;-80
2022/04/07 00:30:09;;;;;;;114.18;103.07;;;10.30;99.10;;;;;;5017537;28;20510;-81
2022/04/07 00:32:41;;;;;;;113.95;102.88;;;10.30;99.20;;;;;;5017408;28;20504;-81
2022/04/07 00:35:09;;;;;;;113.60;102.90;;;10.20;99.20;;;;;;5017694;28;20545;-81
2022/04/07 00:37:36;;;;;;;113.40;102.45;;;10.20;99.30;;;;;;5000618;28;20046;-81
2022/04/07 00:40:05;;;;;;;114.03;102.93;;;10.20;99.30;;;;;;5016235;28;20050;-81
2022/04/07 00:42:31;;;;;;;113.03;102.35;;;10.20;99.30;;;;;;5017393;28;20046;-81
2022/04/07 00:45:00;;;;;;;113.38;102.68;;;10.10;99.30;;;;;;5000864;28;20057;-81
2022/04/07 00:47:27;;;;;;;112.78;102.10;;;10.20;99.40;;;;;;5017005;28;20125;-81
2022/04/07 00:49:54;;;;;;;113.95;102.95;;;10.10;99.50;;;;;;5017150;28;20054;-81
2022/04/07 00:52:22;;;;;;;113.43;102.53;;;10.10;99.50;;;;;;5016880;28;20136;-81
2022/04/07 00:54:49;;;;;;;114.82;103.82;;;10.10;99.60;;;;;;5017092;28;20057;-81
2022/04/07 00:57:16;;;;;;;115.90;104.97;;;10.10;99.70;;;;;;5016525;28;20054;-81
2022/04/07 00:59:43;;;;;;;115.93;105.03;;;10.10;99.70;;;;;;5000681;28;20080;-81
2022/04/07 01:02:11;;;;;;;116.05;105.05;;;10.10;99.50;;;;;;5017127;28;20496;-81
2022/04/07 01:04:38;;;;;;;116.97;106.07;;;10.10;99.40;;;;;;5034804;28;20060;-81
2022/04/07 01:07:07;;;;;;;118.65;107.40;;;10.10;99.40;;;;;;5016329;28;20050;-81
2022/04/07 01:09:34;;;;;;;115.85;104.95;;;10.20;99.50;;;;;;5016762;28;20580;-81
2022/04/07 01:12:01;;;;;;;117.10;105.95;;;10.10;99.40;;;;;;5033076;28;20093;-81
2022/04/07 01:14:28;;;;;;;118.72;107.55;;;10.10;99.50;;;;;;5016647;28;20514;-81
2022/04/07 01:16:55;;;;;;;117.55;106.63;;;10.10;99.50;;;;;;5016257;28;20057;-81
2022/04/07 01:19:23;;;;;;;118.25;106.97;;;10.10;99.60;;;;;;5016356;28;20133;-81
2022/04/07 01:21:50;;;;;;;118.78;107.22;;;10.10;99.70;;;;;;5000282;28;20065;-81
2022/04/07 01:24:18;;;;;;;117.68;106.57;;;10.20;99.50;;;;;;5015626;28;20050;-81
2022/04/07 01:26:47;;;;;;;118.00;106.63;;;10.20;99.40;;;;;;5016294;28;20049;-81
2022/04/07 01:29:15;;;;;;;117.70;106.45;;;10.20;99.40;;;;;;5016338;28;20054;-81
2022/04/07 01:31:43;;;;;;;116.88;105.63;;;10.20;99.30;;;;;;5016330;28;20057;-81
2022/04/07 01:34:13;;;;;;;115.32;103.97;;;10.20;99.30;;;;;;5034546;28;20501;-81
2022/04/07 01:36:42;;;;;;;116.22;104.85;;;10.20;99.30;;;;;;5016380;28;20133;-81
2022/04/07 01:39:10;;;;;;;116.30;104.90;;;10.20;99.30;;;;;;5016094;28;20054;-81
2022/04/07 01:41:39;;;;;;;116.03;104.95;;;10.20;99.30;;;;;;5016189;28;20054;-80
2022/04/07 01:44:10;;;;;;;115.13;103.90;;;10.10;99.30;;;;;;5034065;28;20050;-81
2022/04/07 01:46:38;;;;;;;115.32;104.22;;;10.20;99.20;;;;;;5016368;28;20053;-81
2022/04/07 01:49:06;;;;;;;113.25;102.47;;;10.20;99.00;;;;;;5015786;28;20058;-81
2022/04/07 01:51:34;;;;;;;114.18;103.07;;;10.20;98.90;;;;;;5015376;28;20542;-81
2022/04/07 01:54:02;;;;;;;113.75;102.55;;;10.20;98.80;;;;;;5015865;28;20065;-81
2022/04/07 01:56:30;;;;;;;112.75;101.65;;;10.20;98.80;;;;;;5016034;28;20058;-81
2022/04/07 01:58:56;;;;;;;114.53;103.32;;;10.20;98.80;;;;;;5015884;28;20049;-81
2022/04/07 02:01:25;;;;;;;112.93;101.90;;;10.20;98.70;;;;;;5015792;28;20050;-81
2022/04/07 02:03:51;;;;;;;112.38;101.40;;;10.20;98.60;;;;;;5016094;28;20136;-81
2022/04/07 02:06:20;;;;;;;112.63;101.55;;;10.20;98.60;;;;;;5015914;28;20500;-81
2022/04/07 02:08:47;;;;;;;112.07;101.00;;;10.20;98.70;;;;;;5015590;28;20054;-81
2022/04/07 02:11:14;;;;;;;113.05;102.00;;;10.10;98.80;;;;;;5015975;28;20478;-81
2022/04/07 02:13:42;;;;;;;112.90;101.82;;;10.10;98.80;;;;;;5016067;28;20074;-81
2022/04/07 02:16:10;;;;;;;112.90;101.50;;;10.10;98.70;;;;;;5016195;28;20100;-81
2022/04/07 02:18:39;;;;;;;113.53;102.53;;;10.10;98.60;;;;;;5015672;28;20496;-81
2022/04/07 02:21:07;;;;;;;113.22;102.05;;;10.10;98.60;;;;;;5015892;28;20557;-81
2022/04/07 02:23:41;;;;;;;114.40;102.78;;;10.10;98.60;;;;;;5015462;28;20058;-81
2022/04/07 02:26:10;;;;;;;113.70;102.00;;;10.20;98.60;;;;;;5015844;28;20506;-81
2022/04/07 02:28:38;;;;;;;113.78;102.30;;;10.10;98.60;;;;;;5015014;28;20057;-81
2022/04/07 02:31:05;;;;;;;114.45;103.00;;;10.10;98.70;;;;;;5015448;28;20548;-81
2022/04/07 02:33:34;;;;;;;115.75;104.00;;;10.10;98.80;;;;;;5015505;28;20054;-81
2022/04/07 02:36:02;;;;;;;115.80;103.68;;;10.10;98.80;;;;;;4999286;28;20455;-81
2022/04/07 02:38:29;;;;;;;114.70;103.00;;;10.10;98.80;;;;;;4998827;28;20064;-81
2022/04/07 02:40:56;;;;;;;115.30;103.80;;;10.10;98.80;;;;;;5015594;28;20200;-81
2022/04/07 02:43:23;;;;;;;112.93;101.55;;;10.10;98.90;;;;;;5015558;28;20058;-81
2022/04/07 02:45:50;;;;;;;114.45;103.03;;;10.10;98.80;;;;;;5015232;28;20053;-81
2022/04/07 02:48:17;;;;;;;113.85;102.47;;;10.10;98.90;;;;;;5014656;28;20065;-81
2022/04/07 02:50:43;;;;;;;114.10;102.68;;;10.10;98.90;;;;;;5015185;28;20124;-81
2022/04/07 02:53:13;;;;;;;113.80;102.38;;;10.10;99.10;;;;;;5015139;28;20050;-81
2022/04/07 02:55:40;;;;;;;115.05;103.10;;;10.00;98.90;;;;;;5031955;28;20058;-81
2022/04/07 02:58:07;;;;;;;114.57;102.68;;;10.00;98.90;;;;;;5014610;28;20053;-81
2022/04/07 03:00:34;;;;;;;114.60;102.78;;;10.00;98.90;;;;;;5015291;28;20046;-81
2022/04/07 03:03:01;;;;;;;114.53;103.20;;;10.00;98.90;;;;;;5016626;28;20053;-81
2022/04/07 03:05:28;;;;;;;114.63;102.43;;;10.00;98.90;;;;;;5002702;28;20530;-81
2022/04/07 03:07:55;;;;;;;113.07;101.85;;;10.00;99.00;;;;;;5018341;28;20133;-81
2022/04/07 03:10:23;;;;;;;115.07;103.18;;;10.00;98.90;;;;;;5018559;28;20056;-81
2022/04/07 03:12:50;;;;;;;113.95;102.68;;;10.00;98.90;;;;;;5018349;28;20140;-81
2022/04/07 03:15:17;;;;;;;116.03;104.30;;;10.00;98.90;;;;;;5018693;28;20431;-81
2022/04/07 03:17:44;;;;;;;115.18;103.55;;;10.10;99.00;;;;;;5018169;28;20518;-81
2022/04/07 03:20:11;;;;;;;114.53;102.32;;;10.10;99.00;;;;;;5036341;28;20137;-81
2022/04/07 03:22:38;;;;;;;114.28;102.72;;;10.00;99.10;;;;;;5036264;28;20053;-81
2022/04/07 03:25:07;;;;;;;113.65;102.57;;;10.00;99.20;;;;;;5036215;28;20096;-81
2022/04/07 03:27:35;;;;;;;112.32;100.70;;;10.00;99.00;;;;;;5034715;28;20116;-81
2022/04/07 03:30:03;;;;;;;112.28;101.25;;;10.00;99.10;;;;;;5036019;28;20054;-81
2022/04/07 03:32:30;;;;;;;111.97;100.82;;;10.00;99.20;;;;;;5018003;28;20058;-81
2022/04/07 03:34:57;;;;;;;112.75;101.68;;;10.00;99.30;;;;;;5018175;28;20050;-81
2022/04/07 03:37:24;;;;;;;111.78;100.53;;;9.90;99.30;;;;;;5017826;28;20140;-81
2022/04/07 03:39:51;;;;;;;111.78;100.95;;;9.90;99.20;;;;;;5017687;28;20081;-81
2022/04/07 03:42:18;;;;;;;111.97;101.15;;;9.90;99.10;;;;;;5018221;28;20050;-81
2022/04/07 03:44:46;;;;;;;111.75;100.82;;;9.90;99.00;;;;;;5017893;28;20536;-81
2022/04/07 03:47:13;;;;;;;112.70;101.55;;;9.90;99.00;;;;;;5017714;28;20657;-81
2022/04/07 03:49:40;;;;;;;113.00;101.72;;;9.90;99.10;;;;;;5036046;28;20050;-81
2022/04/07 03:52:08;;;;;;;113.68;102.22;;;9.80;99.10;;;;;;5018063;28;20042;-81
2022/04/07 03:54:35;;;;;;;113.15;101.88;;;9.90;99.20;;;;;;5018102;28;20062;-81
2022/04/07 03:57:02;;;;;;;115.03;103.90;;;9.80;99.20;;;;;;5017590;28;20547;-81
2022/04/07 03:59:33;;;;;;;114.00;102.47;;;9.80;99.30;;;;;;5018008;28;20056;-81
2022/04/07 04:02:01;;;;;;;114.38;103.30;;;9.80;99.40;;;;;;5017811;28;20054;-81
2022/04/07 04:04:28;;;;;;;113.10;101.80;;;9.80;99.30;;;;;;5017727;28;20057;-81
2022/04/07 04:06:55;;;;;;;115.97;104.03;;;9.80;99.30;;;;;;5035528;28;20064;-81
2022/04/07 04:09:22;;;;;;;115.13;103.45;;;9.90;99.30;;;;;;5001207;28;20046;-81
2022/04/07 04:11:49;;;;;;;115.15;103.47;;;9.90;99.20;;;;;;5035486;28;20060;-81
2022/04/07 04:14:16;;;;;;;116.50;103.95;;;9.90;99.10;;;;;;5017636;28;20077;-81
2022/04/07 04:16:43;;;;;;;118.38;106.13;;;9.90;99.10;;;;;;5035207;28;20046;-81
2022/04/07 04:19:11;;;;;;;115.90;104.00;;;9.80;99.20;;;;;;5017512;28;20050;-80
2022/04/07 04:21:38;;;;;;;115.80;103.43;;;9.90;99.10;;;;;;5017186;28;20061;-81
2022/04/07 04:24:05;;;;;;;116.70;104.50;;;9.80;99.10;;;;;;5017255;28;20149;-81
2022/04/07 04:26:32;;;;;;;115.25;102.60;;;9.80;99.20;;;;;;5017151;28;20422;-81
2022/04/07 04:28:59;;;;;;;117.40;104.65;;;9.90;99.10;;;;;;5016909;28;20056;-81
2022/04/07 04:31:26;;;;;;;118.72;105.82;;;9.90;99.10;;;;;;5017342;28;20057;-81
2022/04/07 04:33:53;;;;;;;115.03;102.72;;;9.90;99.00;;;;;;5017052;28;20054;-81
2022/04/07 04:36:21;;;;;;;117.70;105.28;;;9.90;99.10;;;;;;5017652;28;20078;-81
2022/04/07 04:38:49;;;;;;;117.72;104.80;;;9.90;98.90;;;;;;5000462;28;20128;-81
2022/04/07 04:41:16;;;;;;;115.93;103.70;;;9.90;99.00;;;;;;5016942;28;20054;-81
2022/04/07 04:43:43;;;;;;;117.22;103.10;;;9.90;98.90;;;;;;5017412;28;20057;-81
2022/04/07 04:46:10;;;;;;;115.93;103.93;;;9.90;98.80;;;;;;5016786;28;20050;-81
2022/04/07 04:48:38;;;;;;;117.20;104.70;;;9.90;98.80;;;;;;4999962;28;20356;-81
2022/04/07 04:51:05;;;;;;;117.03;104.20;;;9.90;98.60;;;;;;5000480;28;20045;-81
2022/04/07 04:53:33;;;;;;;115.47;102.93;;;9.90;98.70;;;;;;5035054;28;20054;-81
2022/04/07 04:56:00;;;;;;;116.75;104.40;;;9.90;98.80;;;;;;5016800;28;20512;-81
2022/04/07 04:58:27;;;;;;;117.55;104.72;;;9.90;98.90;;;;;;4999953;28;20521;-81
2022/04/07 05:00:54;;;;;;;120.05;107.40;;;9.90;99.00;;;;;;5015322;28;20512;-80
2022/04/07 05:03:21;;;;;;;118.10;105.40;;;9.80;99.00;;;;;;5014561;28;20054;-81
2022/04/07 05:05:48;;;;;;;119.03;106.72;;;9.80;99.20;;;;;;5014520;28;20058;-81
2022/04/07 05:08:15;;;;;;;118.95;106.43;;;9.80;99.30;;;;;;5013492;28;20590;-81
2022/04/07 05:10:43;;;;;;;121.38;108.63;;;9.80;99.40;;;;;;5013083;28;20077;-81
2022/04/07 05:13:10;;;;;;;118.55;106.35;;;9.70;99.40;;;;;;5014506;28;20443;-80
2022/04/07 05:15:39;;;;;;;119.18;106.97;;;9.70;99.50;;;;;;5013460;28;20505;-81
2022/04/07 05:18:06;;;;;;;118.45;105.90;;;9.70;99.50;;;;;;5028449;28;20440;-81
2022/04/07 05:20:33;;;;;;;120.03;107.45;;;9.60;99.60;;;;;;4997461;28;20050;-82
2022/04/07 05:23:00;;;;;;;119.68;106.88;;;9.70;99.70;;;;;;4987803;28;20428;-82
2022/04/07 05:25:27;;;;;;;118.50;106.07;;;9.70;99.60;;;;;;5021396;28;20129;-82
2022/04/07 05:27:55;;;;;;;119.10;106.78;;;9.60;99.70;;;;;;5021744;28;20508;-82
2022/04/07 05:30:22;;;;;;;120.68;108.32;;;9.60;99.70;;;;;;5015778;28;20062;-82
2022/04/07 05:32:49;;;;;;;120.57;108.10;;;9.60;99.80;;;;;;5013134;28;20084;-82
2022/04/07 05:35:16;;;;;;;122.93;110.85;;;9.60;99.70;;;;;;5024935;28;20068;-82
2022/04/07 05:37:43;;;;;;;123.07;110.78;;;9.70;99.60;;;;;;5030308;28;20046;-82
2022/04/07 05:40:12;;;;;;;122.53;110.53;;;9.70;99.70;;;;;;5030002;28;20467;-82
2022/04/07 05:42:39;;;;;;;122.28;109.85;;;9.70;99.60;;;;;;5027535;28;20493;-82
2022/04/07 05:45:09;;;;;;;122.28;110.15;;;9.70;99.50;;;;;;4989908;28;20050;-82
2022/04/07 05:47:39;;;;;;;121.95;109.80;;;9.70;99.60;;;;;;5012481;28;20125;-82
2022/04/07 05:50:07;;;;;;;124.13;111.47;;;9.70;99.70;;;;;;5012864;28;20058;-82
2022/04/07 05:52:34;;;;;;;118.95;107.13;;;9.60;99.80;;;;;;5009050;28;20062;-82
2022/04/07 05:55:01;;;;;;;114.18;103.47;;;9.60;99.80;;;;;;5030287;28;20060;-83
2022/04/07 05:57:30;;;;;;;115.47;104.68;;;9.50;98.10;;;;;;5011791;28;20069;-82
2022/04/07 06:00:03;;;;;;;116.38;105.70;;;9.30;96.80;;;;;;5013026;28;20545;-82
2022/04/07 06:02:33;;;;;;;115.10;104.50;;;9.00;96.50;;;;;;5013424;28;20124;-82
2022/04/07 06:05:00;;;;;;;114.20;103.60;;;8.70;96.40;;;;;;5030389;28;20050;-82
2022/04/07 06:07:26;;;;;;;116.82;106.13;;;8.40;96.30;;;;;;5013544;28;20397;-81
2022/04/07 06:09:53;;;;;;;114.80;104.18;;;8.20;96.40;;;;;;5013252;28;20065;-82
2022/04/07 06:12:20;;;;;;;114.13;103.35;;;8.00;96.10;;;;;;4997605;28;20045;-83
2022/04/07 06:14:47;;;;;;;115.03;104.22;;;7.80;96.40;;;;;;5029824;28;20054;-83
2022/04/07 06:17:14;;;;;;;115.57;104.45;;;7.60;96.60;;;;;;5010260;28;20132;-83
2022/04/07 06:19:42;;;;;;;116.63;105.35;;;7.40;97.00;;;;;;5029227;28;20165;-83
2022/04/07 06:22:11;;;;;;;115.10;103.55;;;7.30;97.30;;;;;;5013271;28;20050;-82
2022/04/07 06:24:38;;;;;;;115.90;104.57;;;7.20;97.50;;;;;;5004570;28;20046;-82
2022/04/07 06:27:05;;;;;;;116.95;105.43;;;7.00;97.80;;;;;;5027523;28;20046;-82
2022/04/07 06:29:32;;;;;;;116.85;105.45;;;6.90;98.00;;;;;;5010744;28;20053;-82
2022/04/07 06:31:59;;;;;;;115.32;103.88;;;6.90;98.20;;;;;;5031174;28;20056;-83
2022/04/07 06:34:26;;;;;;;;;;;6.80;98.30;;;;;;5005824;28;20073;-82
2022/04/07 06:36:54;;;;;;;115.18;103.45;;;6.80;98.40;;;;;;5002868;28;19929;-82
2022/04/07 06:39:21;;;;;;;114.10;102.68;;;6.70;98.40;;;;;;5029485;28;20053;-83
2022/04/07 06:41:48;;;;;;;;;;;6.70;98.60;;;;;;5030435;28;20057;-83
2022/04/07 06:44:15;;;;;;;;;;;6.60;98.50;;;;;;5013878;28;19926;-82
2022/04/07 06:46:41;;;;;;;111.82;100.53;;;6.60;98.50;;;;;;4996450;28;19976;-82
2022/04/07 06:49:08;;;;;;;113.28;102.05;;;6.60;98.60;;;;;;5029086;28;20050;-82
2022/04/07 06:51:35;;;;;;;113.32;102.05;;;6.60;98.50;;;;;;5012741;28;20103;-82
2022/04/07 06:54:03;;;;;;;;;;;6.60;98.60;;;;;;5013428;28;20132;-82
2022/04/07 06:56:30;;;;;;;112.07;100.90;;;6.60;98.50;;;;;;5010893;28;19935;-82
2022/04/07 06:58:57;;;;;;;111.97;100.65;;;6.70;98.40;;;;;;4996766;28;20046;-82
2022/04/07 07:01:24;;;;;;;112.38;101.25;;;6.70;98.40;;;;;;4995266;28;20050;-82
2022/04/07 07:03:51;;;;;;;111.40;100.40;;;6.70;98.30;;;;;;5012939;28;20145;-82
2022/04/07 07:06:18;;;;;;;112.95;101.70;;;6.70;98.20;;;;;;4993343;28;20568;-82
2022/04/07 07:08:45;;;;;;;;;;;6.70;98.20;;;;;;5007700;28;20122;-82
2022/04/07 07:11:14;;;;;;;112.95;101.65;;;6.60;98.30;;;;;;5002829;28;19926;-82
2022/04/07 07:13:42;;;;;;;111.75;100.75;;;6.60;98.20;;;;;;4994435;28;20077;-82
2022/04/07 07:16:08;;;;;;;111.93;100.80;;;6.60;98.10;;;;;;5012955;28;20050;-82
2022/04/07 07:18:38;;;;;;;;;;;6.60;98.10;;;;;;5012481;28;20057;-81
2022/04/07 07:21:05;;;;;;;112.60;101.28;;;6.60;98.10;;;;;;5013134;28;20039;-81
2022/04/07 07:23:32;;;;;;;;;;;6.60;98.10;;;;;;5012726;28;20054;-82
2022/04/07 07:25:59;;;;;;;111.82;100.43;;;6.70;98.00;;;;;;5031318;28;20025;-81
2022/04/07 07:28:27;;;;;;;112.63;101.25;;;6.70;98.00;;;;;;4996433;28;20132;-81
2022/04/07 07:30:54;;;;;;;114.38;103.25;;;6.70;97.80;;;;;;5012526;28;20061;-81
2022/04/07 07:33:21;;;;;;;112.32;101.13;;;6.70;97.70;;;;;;5012765;28;20054;-80
2022/04/07 07:35:48;;;;;;;112.55;101.20;;;6.70;98.00;;;;;;5012778;28;20073;-81
2022/04/07 07:38:15;;;;;;;111.25;100.05;;;6.70;97.90;;;;;;4995458;28;20057;-81
2022/04/07 07:40:42;;;;;;;113.35;101.88;;;6.70;97.90;;;;;;5011946;28;20064;-81
2022/04/07 07:43:09;;;;;;;;;;;6.70;97.90;;;;;;5012470;28;20057;-81
2022/04/07 07:45:37;;;;;;;113.47;102.00;;;6.70;97.70;;;;;;5011484;28;19936;-81
2022/04/07 07:48:05;;;;;;;114.47;103.20;;;6.80;97.70;;;;;;5011874;28;20176;-81
2022/04/07 07:50:32;;;;;;;113.40;101.80;;;6.70;97.80;;;;;;5014123;28;20499;-81
2022/04/07 07:52:58;;;;;;;;;;;6.70;97.70;;;;;;5032367;28;20058;-81
2022/04/07 07:55:25;;;;;;;113.13;101.85;;;6.70;97.70;;;;;;4999645;28;20024;-81
2022/04/07 07:57:52;;;;;;;112.53;101.13;;;6.70;97.80;;;;;;5031382;28;20512;-81
2022/04/07 08:00:19;;;;;;;;;;;6.70;97.90;;;;;;5031861;28;20151;-81
2022/04/07 08:02:47;;;;;;;114.07;102.50;;;6.70;97.90;;;;;;5015147;28;19933;-81
2022/04/07 08:05:14;;;;;;;113.68;102.32;;;6.70;98.00;;;;;;5015574;28;20049;-81
2022/04/07 08:07:42;;;;;;;116.22;104.93;;;6.70;98.00;;;;;;5032982;28;20139;-81
2022/04/07 08:10:10;;;;;;;115.65;104.25;;;6.80;97.90;;;;;;5030318;28;20058;-81
2022/04/07 08:12:38;;;;;;;115.85;104.65;;;6.80;97.80;;;;;;5015293;28;20136;-81
2022/04/07 08:15:06;;;;;;;112.53;101.53;;;6.80;97.70;;;;;;5016447;28;20535;-80
2022/04/07 08:17:32;;;;;;;111.03;100.03;;;6.80;97.80;;;;;;5016209;28;20058;-80
2022/04/07 08:20:02;;;;;;;111.38;100.53;;;6.90;97.80;;;;;;5034690;28;20057;-80
2022/04/07 08:22:29;;;;;;;112.97;101.70;;;6.90;97.80;;;;;;5000691;28;20096;-80
2022/04/07 08:24:56;;;;;;;113.05;102.03;;;6.90;97.90;;;;;;5034427;28;20132;-81
2022/04/07 08:27:24;;;;;;;;;;;6.90;97.90;;;;;;5000698;28;20134;-80
2022/04/07 08:29:51;;;;;;;112.80;101.43;;;7.00;97.90;;;;;;5017736;28;19929;-80
2022/04/07 08:32:18;;;;;;;;;;;7.00;98.00;;;;;;5017044;28;20527;-80
2022/04/07 08:34:45;;;;;;;;;;;7.00;97.90;;;;;;5018262;28;19983;-81
2022/04/07 08:37:14;;;;;;;111.85;100.50;;;7.10;97.90;;;;;;5017108;28;20380;-80
2022/04/07 08:39:41;;;;;;;112.82;101.63;;;7.10;98.00;;;;;;5034360;28;20050;-80
2022/04/07 08:42:08;;;;;;;;;;;7.10;98.10;;;;;;5033713;28;20404;-81
2022/04/07 08:44:35;;;;;;;113.15;101.75;;;7.10;98.20;;;;;;5016906;28;19951;-81
2022/04/07 08:47:01;;;;;;;;;;;7.20;98.20;;;;;;5000394;28;20050;-81
2022/04/07 08:49:30;;;;;;;;;;;7.20;98.30;;;;;;5013916;28;19968;-81
2022/04/07 08:51:56;;;;;;;111.57;100.22;;;7.30;98.40;;;;;;5016247;28;19932;-82
2022/04/07 08:54:25;;;;;;;111.00;99.90;;;7.30;98.50;;;;;;4999123;28;20140;-82
2022/04/07 08:56:52;;;;;;;110.25;99.30;;;7.50;98.70;;;;;;5015098;28;20081;-82
2022/04/07 08:59:19;;;;;;;110.35;99.55;;;7.50;98.50;;;;;;5013974;28;20050;-81
2022/04/07 09:01:46;;;;;;;110.93;99.97;;;7.60;98.70;;;;;;4913715;28;20138;-82
2022/04/07 09:04:13;;;;;;;;;;;7.70;98.40;;;;;;4960865;28;20141;-80
2022/04/07 09:06:41;;;;;;;109.15;98.00;;;7.80;98.40;;;;;;4981954;28;19926;-79
2022/04/07 09:09:14;;;;;;;109.00;98.15;;;7.90;98.60;;;;;;4997851;28;20053;-80
2022/04/07 09:11:42;;;;;;;109.18;98.47;;;8.10;98.30;;;;;;4996668;28;20050;-79
2022/04/07 09:14:11;;;;;;;109.95;99.20;;;8.20;98.60;;;;;;5000486;28;20851;-79
2022/04/07 09:16:39;;;;;;;110.53;99.55;;;8.30;98.30;;;;;;4981478;28;20053;-80
2022/04/07 09:19:07;;;;;;;110.85;99.60;;;8.40;98.00;;;;;;4997561;28;20054;-80
2022/04/07 09:21:35;;;;;;;109.43;98.68;;;8.50;97.80;;;;;;4997872;28;20062;-79
2022/04/07 09:24:05;;;;;;;109.70;98.68;;;8.60;97.60;;;;;;4998960;28;20051;-79
2022/04/07 09:26:32;;;;;;;109.75;98.88;;;8.70;97.80;;;;;;4991526;28;20181;-80
2022/04/07 09:29:08;;;;;;;110.15;99.03;;;8.80;97.80;;;;;;4977722;28;20053;-80
2022/04/07 09:31:38;;;;;;;111.82;101.07;;;8.90;97.30;;;;;;4977579;28;20070;-80
2022/04/07 09:34:05;;;;;;;112.82;101.32;;;9.00;97.00;;;;;;4977534;28;20050;-80
2022/04/07 09:36:32;;;;;;;112.25;101.05;;;9.10;97.10;;;;;;4991732;28;20058;-80
2022/04/07 09:39:00;;;;;;;111.85;100.38;;;9.20;96.50;;;;;;5014204;28;20054;-80
2022/04/07 09:41:30;;;;;;;113.85;102.43;;;9.40;96.10;;;;;;4996128;28;20070;-81
2022/04/07 09:43:59;;;;;;;112.72;101.57;;;9.40;95.60;;;;;;4945211;28;20121;-81
2022/04/07 09:46:32;;;;;;;113.05;101.72;;;9.40;95.90;;;;;;5002941;28;20113;-80
2022/04/07 09:49:05;;;;;;;112.47;100.88;;;9.50;95.80;;;;;;4993557;28;20047;-80
2022/04/07 09:51:38;;;;;;;112.30;100.95;;;9.50;95.50;;;;;;5011695;28;20046;-80
2022/04/07 09:54:09;;;;;;;111.18;99.97;;;9.60;95.60;;;;;;5014908;28;20104;-80
2022/04/07 09:56:36;;;;;;;113.50;102.00;;;9.70;95.80;;;;;;5014384;28;20109;-79
2022/04/07 09:59:05;;;;;;;111.13;99.50;;;9.80;95.40;;;;;;4995971;28;20058;-80
2022/04/07 10:01:35;;;;;;;111.57;100.15;;;9.80;95.40;;;;;;4997135;28;20050;-80
2022/04/07 10:04:03;;;;;;;112.97;101.53;;;9.90;95.40;;;;;;4996530;28;20117;-80
2022/04/07 10:06:32;;;;;;;112.78;101.45;;;10.00;95.10;;;;;;4996667;28;20054;-81
2022/04/07 10:09:01;;;;;;;112.50;101.28;;;10.00;94.80;;;;;;4995643;28;20046;-80
2022/04/07 10:11:30;;;;;;;112.05;100.82;;;10.00;94.80;;;;;;4995958;28;20109;-80
2022/04/07 10:13:58;;;;;;;113.13;101.95;;;10.00;94.70;;;;;;4995492;28;20045;-81
2022/04/07 10:16:26;;;;;;;114.05;102.15;;;10.00;95.20;;;;;;4996129;28;20076;-80
2022/04/07 10:19:00;;;;;;;111.43;100.43;;;10.10;94.20;;;;;;4980172;28;20050;-80
2022/04/07 10:21:48;;;;;;;112.13;100.40;;;10.20;94.00;;;;;;4996712;28;20047;-80
2022/04/07 10:24:27;;;;;;;112.22;100.82;;;10.20;94.20;;;;;;4996787;28;20113;-80
2022/04/07 10:26:55;;;;;;;113.28;101.78;;;10.20;94.10;;;;;;4996770;28;20057;-80
2022/04/07 10:29:23;;;;;;;113.20;101.70;;;10.20;94.50;;;;;;4996260;28;20052;-79
2022/04/07 10:32:21;;;;;;;113.93;102.13;;;10.30;94.20;;;;;;4996156;28;20054;-79
2022/04/07 10:34:58;;;;;;;112.65;101.15;;;10.30;93.30;;;;;;4984344;28;20052;-79
2022/04/07 10:37:30;;;;;;;111.93;100.60;;;10.40;93.00;;;;;;4996021;28;20053;-80
2022/04/07 10:39:57;;;;;;;113.70;102.25;;;10.40;92.70;;;;;;5008094;28;20060;-80
2022/04/07 10:42:57;;;;;;;113.22;101.45;;;10.30;92.80;;;;;;5010730;28;20523;-81
2022/04/07 10:45:31;;;;;;;112.55;101.15;;;10.40;92.80;;;;;;4978314;28;20513;-80
2022/04/07 10:48:20;;;;;;;114.13;101.97;;;10.40;92.20;;;;;;4996216;28;20050;-80
2022/04/07 10:50:50;;;;;;;113.05;101.32;;;10.30;92.60;;;;;;4993325;28;20460;-80
2022/04/07 10:53:19;;;;;;;113.47;101.95;;;10.30;92.90;;;;;;4996024;28;20524;-80
2022/04/07 10:55:55;;;;;;;113.03;101.45;;;10.40;93.00;;;;;;4994882;28;20050;-81
2022/04/07 10:58:24;;;;;;;113.68;101.97;;;10.40;92.80;;;;;;4995394;28;20502;-81
2022/04/07 11:00:51;;;;;;;114.32;102.43;;;10.50;92.10;;;;;;4996329;28;20062;-80
2022/04/07 11:03:19;;;;;;;112.72;101.10;;;10.50;91.60;;;;;;4995495;28;20494;-78
2022/04/07 11:05:54;;;;;;;112.85;101.28;;;10.50;91.60;;;;;;4995217;28;20519;-78
2022/04/07 11:08:22;;;;;;;112.47;101.18;;;10.50;91.40;;;;;;4994983;28;20504;-80
2022/04/07 11:10:50;;;;;;;113.38;102.30;;;10.50;92.00;;;;;;4996211;28;20062;-80
2022/04/07 11:13:17;;;;;;;115.00;103.03;;;10.40;91.80;;;;;;4995152;28;20522;-80
2022/04/07 11:15:54;;;;;;;115.85;104.00;;;10.40;91.90;;;;;;4996166;28;20503;-81
2022/04/07 11:18:48;;;;;;;115.40;103.38;;;10.30;92.00;;;;;;4996200;28;20060;-81
2022/04/07 11:21:16;;;;;;;112.22;100.20;;;10.20;92.60;;;;;;5014146;28;20137;-80
2022/04/07 11:23:51;;;;;;;111.32;100.05;;;10.10;92.90;;;;;;4997129;28;20492;-81
2022/04/07 11:26:23;;;;;;;113.43;101.63;;;10.00;93.20;;;;;;4998590;28;20049;-81
2022/04/07 11:29:05;;;;;;;112.10;100.43;;;9.90;93.50;;;;;;4996190;28;20046;-81
2022/04/07 11:31:49;;;;;;;113.07;101.25;;;9.80;94.00;;;;;;5014465;28;20134;-80
2022/04/07 11:34:41;;;;;;;112.50;100.78;;;9.80;94.20;;;;;;4998888;28;20083;-80
2022/04/07 11:37:10;;;;;;;116.88;104.68;;;9.80;94.30;;;;;;5008967;28;20038;-81
2022/04/07 11:39:40;;;;;;;116.50;104.65;;;9.90;94.40;;;;;;4993640;28;20543;-80
2022/04/07 11:42:07;;;;;;;117.05;105.32;;;10.00;93.80;;;;;;5015911;28;20046;-81
2022/04/07 11:44:34;;;;;;;114.70;103.28;;;10.00;93.40;;;;;;4982147;28;20047;-81
2022/04/07 11:47:01;;;;;;;114.88;102.75;;;10.10;92.60;;;;;;4998913;28;20039;-80
2022/04/07 11:49:29;;;;;;;112.78;101.38;;;10.20;92.80;;;;;;4998465;28;20060;-80
2022/04/07 11:51:56;;;;;;;112.45;100.80;;;10.20;93.20;;;;;;4999552;28;20525;-81
2022/04/07 11:54:25;;;;;;;113.38;101.53;;;10.20;92.80;;;;;;4995999;28;20145;-81
2022/04/07 11:56:52;;;;;;;114.65;102.68;;;10.30;92.30;;;;;;4980967;28;20042;-81
2022/04/07 11:59:20;;;;;;;111.82;100.70;;;10.30;92.20;;;;;;4997992;28;20416;-81
2022/04/07 12:01:48;;;;;;;112.57;101.07;;;10.30;92.20;;;;;;4998246;28;20588;-80
2022/04/07 12:04:15;;;;;;;112.80;101.10;;;10.40;91.60;;;;;;4999063;28;20050;-81
2022/04/07 12:06:44;;;;;;;114.45;102.68;;;10.40;91.90;;;;;;4997876;28;20056;-80
2022/04/07 12:09:12;;;;;;;112.05;100.55;;;10.40;91.80;;;;;;4982092;28;20050;-80
2022/04/07 12:11:40;;;;;;;113.00;101.28;;;10.40;91.70;;;;;;4998761;28;20062;-80
2022/04/07 12:14:10;;;;;;;113.85;101.75;;;10.40;92.00;;;;;;4982327;28;20885;-80
2022/04/07 12:16:44;;;;;;;113.95;102.32;;;10.50;91.20;;;;;;4998172;28;20513;-80
2022/04/07 12:19:11;;;;;;;112.82;101.50;;;10.50;90.40;;;;;;5016518;28;20061;-81
2022/04/07 12:21:52;;;;;;;112.18;100.47;;;10.50;91.30;;;;;;4998941;28;20046;-80
2022/04/07 12:24:19;;;;;;;112.07;100.43;;;10.50;92.00;;;;;;4998052;28;20508;-80
2022/04/07 12:26:49;;;;;;;110.53;99.30;;;10.60;91.60;;;;;;4998429;28;20046;-80